Augustenborg, Denmark
Current Conditions -  °F | °C
As of 5:51 PM on Friday 19 Dec 2014 (Local Time) from EKSB Reporting Station
Scattered Clouds Scattered Clouds  
Wind Chill: 36°   Ceiling: Unl
Heat Index: 43°   Visibility: 6mi
Dew Point: 36°   Wind: 13mph
Humidity: 76%   Direction: 270°W
Pressure: 29.59"   Gusts: NA
Location:  54.95°N, 9.87°E
Report Text: EKSB 191651Z 27011KT 240V300 9999 SCT035 06/02 Q1002
Loading
Personal Weather Stations






























Interactive Weather Map New forecast layout! Learn more

10-Day Weather Forecast

Advertisements
Track Severe Weather on mobile